sensor_id;sensor_type;location;lat;lon;timestamp;pressure;altitude;pressure_sealevel;temperature;humidity
19447;BME280;9862;49.462;11.054;2023-02-25T00:00:00;96685.31;;;5.04;100.00
19447;BME280;9862;49.462;11.054;2023-02-25T00:02:34;96693.22;;;4.91;100.00
19447;BME280;9862;49.462;11.054;2023-02-25T00:05:02;96698.47;;;5.04;100.00
19447;BME280;9862;49.462;11.054;2023-02-25T00:07:32;96700.09;;;5.05;100.00
19447;BME280;9862;49.462;11.054;2023-02-25T00:09:58;96698.00;;;5.21;100.00
19447;BME280;9862;49.462;11.054;2023-02-25T00:12:26;96708.53;;;5.40;100.00
19447;BME280;9862;49.462;11.054;2023-02-25T00:14:53;96703.28;;;5.21;100.00
19447;BME280;9862;49.462;11.054;2023-02-25T00:17:20;96703.09;;;5.22;100.00
19447;BME280;9862;49.462;11.054;2023-02-25T00:19:46;96705.34;;;5.18;100.00
19447;BME280;9862;49.462;11.054;2023-02-25T00:22:13;96700.47;;;5.22;100.00
19447;BME280;9862;49.462;11.054;2023-02-25T00:24:41;96706.59;;;4.96;100.00
19447;BME280;9862;49.462;11.054;2023-02-25T00:27:08;96707.41;;;5.03;100.00
19447;BME280;9862;49.462;11.054;2023-02-25T00:29:34;96707.59;;;5.02;100.00
19447;BME280;9862;49.462;11.054;2023-02-25T00:32:01;96706.00;;;4.94;100.00
19447;BME280;9862;49.462;11.054;2023-02-25T00:34:27;96702.97;;;4.71;100.00
19447;BME280;9862;49.462;11.054;2023-02-25T00:36:54;96707.25;;;4.85;100.00
19447;BME280;9862;49.462;11.054;2023-02-25T00:39:21;96710.66;;;5.05;100.00
19447;BME280;9862;49.462;11.054;2023-02-25T00:41:50;96703.31;;;5.14;100.00
19447;BME280;9862;49.462;11.054;2023-02-25T00:44:16;96700.69;;;5.01;100.00
19447;BME280;9862;49.462;11.054;2023-02-25T00:46:43;96707.63;;;4.95;100.00
19447;BME280;9862;49.462;11.054;2023-02-25T00:49:09;96714.75;;;4.75;100.00
19447;BME280;9862;49.462;11.054;2023-02-25T00:51:37;96708.00;;;4.92;100.00
19447;BME280;9862;49.462;11.054;2023-02-25T00:54:03;96711.66;;;5.04;100.00
19447;BME280;9862;49.462;11.054;2023-02-25T00:56:30;96715.50;;;5.08;100.00
19447;BME280;9862;49.462;11.054;2023-02-25T00:58:58;96711.03;;;5.15;100.00
19447;BME280;9862;49.462;11.054;2023-02-25T01:01:26;96718.34;;;5.13;100.00
19447;BME280;9862;49.462;11.054;2023-02-25T01:03:54;96709.84;;;4.98;100.00
19447;BME280;9862;49.462;11.054;2023-02-25T01:06:22;96715.91;;;4.92;100.00
19447;BME280;9862;49.462;11.054;2023-02-25T01:08:49;96713.88;;;5.01;100.00
19447;BME280;9862;49.462;11.054;2023-02-25T01:11:17;96711.31;;;4.74;100.00
19447;BME280;9862;49.462;11.054;2023-02-25T01:13:48;96709.44;;;4.81;100.00
19447;BME280;9862;49.462;11.054;2023-02-25T01:16:18;96712.94;;;4.75;100.00
19447;BME280;9862;49.462;11.054;2023-02-25T01:18:46;96711.91;;;4.83;100.00
19447;BME280;9862;49.462;11.054;2023-02-25T01:21:17;96711.66;;;4.98;100.00
19447;BME280;9862;49.462;11.054;2023-02-25T01:23:45;96709.41;;;5.01;100.00
19447;BME280;9862;49.462;11.054;2023-02-25T01:26:11;96715.31;;;4.97;100.00
19447;BME280;9862;49.462;11.054;2023-02-25T01:28:38;96717.13;;;5.09;100.00
19447;BME280;9862;49.462;11.054;2023-02-25T01:31:05;96720.81;;;4.95;100.00
19447;BME280;9862;49.462;11.054;2023-02-25T01:33:34;96716.94;;;4.91;100.00
19447;BME280;9862;49.462;11.054;2023-02-25T01:36:03;96714.31;;;4.98;100.00
19447;BME280;9862;49.462;11.054;2023-02-25T01:38:30;96716.72;;;4.99;100.00
19447;BME280;9862;49.462;11.054;2023-02-25T01:40:57;96724.84;;;4.98;100.00
19447;BME280;9862;49.462;11.054;2023-02-25T01:43:24;96728.09;;;5.13;100.00
19447;BME280;9862;49.462;11.054;2023-02-25T01:45:53;96714.94;;;4.93;100.00
19447;BME280;9862;49.462;11.054;2023-02-25T01:48:22;96722.44;;;4.89;100.00
19447;BME280;9862;49.462;11.054;2023-02-25T01:50:52;96724.28;;;4.76;100.00
19447;BME280;9862;49.462;11.054;2023-02-25T01:53:23;96722.44;;;4.83;100.00
19447;BME280;9862;49.462;11.054;2023-02-25T01:55:50;96718.78;;;4.97;100.00
19447;BME280;9862;49.462;11.054;2023-02-25T01:58:17;96727.31;;;4.79;100.00
19447;BME280;9862;49.462;11.054;2023-02-25T02:00:45;96726.47;;;4.92;100.00
19447;BME280;9862;49.462;11.054;2023-02-25T02:03:12;96739.66;;;4.92;100.00
19447;BME280;9862;49.462;11.054;2023-02-25T02:06:00;96740.66;;;4.91;100.00
19447;BME280;9862;49.462;11.054;2023-02-25T02:08:28;96735.78;;;5.01;100.00
19447;BME280;9862;49.462;11.054;2023-02-25T02:10:56;96728.09;;;5.06;100.00
19447;BME280;9862;49.462;11.054;2023-02-25T02:13:23;96731.31;;;5.15;100.00
19447;BME280;9862;49.462;11.054;2023-02-25T02:16:00;96736.19;;;4.92;100.00
19447;BME280;9862;49.462;11.054;2023-02-25T02:18:34;96734.97;;;5.01;100.00
19447;BME280;9862;49.462;11.054;2023-02-25T02:21:10;96737.84;;;4.93;100.00
19447;BME280;9862;49.462;11.054;2023-02-25T02:26:58;96729.69;;;5.01;100.00
19447;BME280;9862;49.462;11.054;2023-02-25T02:29:47;96733.78;;;5.03;100.00
19447;BME280;9862;49.462;11.054;2023-02-25T02:32:30;96737.81;;;5.12;100.00
19447;BME280;9862;49.462;11.054;2023-02-25T02:35:05;96729.31;;;5.04;100.00
19447;BME280;9862;49.462;11.054;2023-02-25T02:37:39;96733.38;;;4.86;100.00
19447;BME280;9862;49.462;11.054;2023-02-25T02:40:20;96736.63;;;4.88;100.00
19447;BME280;9862;49.462;11.054;2023-02-25T02:43:05;96745.34;;;4.82;100.00
19447;BME280;9862;49.462;11.054;2023-02-25T02:45:40;96737.44;;;4.89;100.00
19447;BME280;9862;49.462;11.054;2023-02-25T02:48:13;96742.69;;;4.89;100.00
19447;BME280;9862;49.462;11.054;2023-02-25T02:50:44;96744.75;;;4.87;100.00
19447;BME280;9862;49.462;11.054;2023-02-25T02:53:13;96744.31;;;4.90;100.00
19447;BME280;9862;49.462;11.054;2023-02-25T02:55:43;96744.91;;;4.92;100.00
19447;BME280;9862;49.462;11.054;2023-02-25T02:58:14;96747.16;;;4.82;100.00
19447;BME280;9862;49.462;11.054;2023-02-25T03:00:45;96748.19;;;4.94;100.00
19447;BME280;9862;49.462;11.054;2023-02-25T03:03:17;96745.75;;;4.93;100.00
19447;BME280;9862;49.462;11.054;2023-02-25T03:05:49;96743.53;;;4.83;100.00
19447;BME280;9862;49.462;11.054;2023-02-25T03:08:21;96745.56;;;4.94;100.00
19447;BME280;9862;49.462;11.054;2023-02-25T03:10:48;96747.97;;;4.96;100.00
19447;BME280;9862;49.462;11.054;2023-02-25T03:13:15;96756.06;;;5.07;100.00
19447;BME280;9862;49.462;11.054;2023-02-25T03:15:42;96744.28;;;5.16;100.00
19447;BME280;9862;49.462;11.054;2023-02-25T03:18:17;96741.44;;;5.18;100.00
19447;BME280;9862;49.462;11.054;2023-02-25T03:20:48;96749.94;;;5.20;100.00
19447;BME280;9862;49.462;11.054;2023-02-25T03:23:19;96747.94;;;5.09;100.00
19447;BME280;9862;49.462;11.054;2023-02-25T03:25:50;96744.53;;;4.95;100.00
19447;BME280;9862;49.462;11.054;2023-02-25T03:28:24;96758.53;;;4.69;100.00
19447;BME280;9862;49.462;11.054;2023-02-25T03:30:57;96759.53;;;4.62;100.00
19447;BME280;9862;49.462;11.054;2023-02-25T03:33:31;96758.53;;;4.69;100.00
19447;BME280;9862;49.462;11.054;2023-02-25T03:36:02;96753.44;;;4.81;100.00
19447;BME280;9862;49.462;11.054;2023-02-25T03:38:32;96756.09;;;4.74;100.00
19447;BME280;9862;49.462;11.054;2023-02-25T03:41:04;96759.75;;;4.73;100.00
19447;BME280;9862;49.462;11.054;2023-02-25T03:43:36;96757.94;;;4.67;100.00
19447;BME280;9862;49.462;11.054;2023-02-25T03:46:04;96759.16;;;4.65;100.00
19447;BME280;9862;49.462;11.054;2023-02-25T03:48:34;96772.72;;;4.68;100.00
19447;BME280;9862;49.462;11.054;2023-02-25T03:51:03;96765.00;;;4.60;100.00
19447;BME280;9862;49.462;11.054;2023-02-25T03:53:32;96768.63;;;4.52;100.00
19447;BME280;9862;49.462;11.054;2023-02-25T03:56:04;96761.75;;;4.38;100.00
19447;BME280;9862;49.462;11.054;2023-02-25T03:58:31;96770.47;;;4.45;100.00
19447;BME280;9862;49.462;11.054;2023-02-25T04:00:59;96770.06;;;4.35;100.00
19447;BME280;9862;49.462;11.054;2023-02-25T04:03:27;96773.91;;;4.39;100.00
19447;BME280;9862;49.462;11.054;2023-02-25T04:05:55;96781.59;;;4.34;100.00
19447;BME280;9862;49.462;11.054;2023-02-25T04:08:22;96773.91;;;4.26;100.00
19447;BME280;9862;49.462;11.054;2023-02-25T04:10:48;96779.16;;;4.26;100.00
19447;BME280;9862;49.462;11.054;2023-02-25T04:13:16;96775.50;;;4.20;100.00
19447;BME280;9862;49.462;11.054;2023-02-25T04:15:45;96779.59;;;4.36;100.00
19447;BME280;9862;49.462;11.054;2023-02-25T04:18:12;96771.50;;;4.44;100.00
19447;BME280;9862;49.462;11.054;2023-02-25T04:20:39;96777.13;;;4.28;100.00
19447;BME280;9862;49.462;11.054;2023-02-25T04:23:11;96778.53;;;4.24;100.00
19447;BME280;9862;49.462;11.054;2023-02-25T04:25:37;96776.31;;;4.27;100.00
19447;BME280;9862;49.462;11.054;2023-02-25T04:28:04;96782.63;;;4.46;100.00
19447;BME280;9862;49.462;11.054;2023-02-25T04:30:30;96788.53;;;4.55;100.00
19447;BME280;9862;49.462;11.054;2023-02-25T04:32:57;96792.94;;;4.41;100.00
19447;BME280;9862;49.462;11.054;2023-02-25T04:35:23;96793.34;;;4.38;100.00
19447;BME280;9862;49.462;11.054;2023-02-25T04:37:50;96798.22;;;4.41;100.00
19447;BME280;9862;49.462;11.054;2023-02-25T04:40:21;96793.78;;;4.55;100.00
19447;BME280;9862;49.462;11.054;2023-02-25T04:42:48;96802.47;;;4.36;100.00
19447;BME280;9862;49.462;11.054;2023-02-25T04:45:15;96805.91;;;4.36;100.00
19447;BME280;9862;49.462;11.054;2023-02-25T04:47:42;96804.31;;;4.48;100.00
19447;BME280;9862;49.462;11.054;2023-02-25T04:50:10;96806.72;;;4.43;100.00
19447;BME280;9862;49.462;11.054;2023-02-25T04:52:37;96801.66;;;4.35;100.00
19447;BME280;9862;49.462;11.054;2023-02-25T04:55:04;96800.00;;;4.21;100.00
19447;BME280;9862;49.462;11.054;2023-02-25T04:57:32;96804.06;;;4.30;100.00
19447;BME280;9862;49.462;11.054;2023-02-25T04:59:59;96802.03;;;4.32;100.00
19447;BME280;9862;49.462;11.054;2023-02-25T05:02:25;96795.56;;;4.41;100.00
19447;BME280;9862;49.462;11.054;2023-02-25T05:04:52;96798.44;;;4.53;100.00
19447;BME280;9862;49.462;11.054;2023-02-25T05:07:19;96784.25;;;4.47;100.00
19447;BME280;9862;49.462;11.054;2023-02-25T05:09:45;96799.38;;;4.12;100.00
19447;BME280;9862;49.462;11.054;2023-02-25T05:12:12;96793.34;;;4.25;100.00
19447;BME280;9862;49.462;11.054;2023-02-25T05:14:40;96795.53;;;4.21;100.00
19447;BME280;9862;49.462;11.054;2023-02-25T05:17:07;96794.50;;;4.09;100.00
19447;BME280;9862;49.462;11.054;2023-02-25T05:19:33;96792.00;;;3.94;100.00
19447;BME280;9862;49.462;11.054;2023-02-25T05:22:00;96796.91;;;3.97;100.00
19447;BME280;9862;49.462;11.054;2023-02-25T05:24:26;96791.25;;;4.14;100.00
19447;BME280;9862;49.462;11.054;2023-02-25T05:26:53;96806.28;;;4.20;100.00
19447;BME280;9862;49.462;11.054;2023-02-25T05:29:19;96805.44;;;4.13;100.00
19447;BME280;9862;49.462;11.054;2023-02-25T05:31:47;96812.53;;;4.06;100.00
19447;BME280;9862;49.462;11.054;2023-02-25T05:34:15;96814.72;;;4.02;100.00
19447;BME280;9862;49.462;11.054;2023-02-25T05:36:42;96811.72;;;4.12;100.00
19447;BME280;9862;49.462;11.054;2023-02-25T05:39:11;96806.63;;;3.97;100.00
19447;BME280;9862;49.462;11.054;2023-02-25T05:41:38;96811.47;;;4.00;100.00
19447;BME280;9862;49.462;11.054;2023-02-25T05:44:05;96811.50;;;4.13;100.00
19447;BME280;9862;49.462;11.054;2023-02-25T05:46:31;96822.88;;;4.20;100.00
19447;BME280;9862;49.462;11.054;2023-02-25T05:48:59;96804.84;;;4.24;100.00
19447;BME280;9862;49.462;11.054;2023-02-25T05:51:26;96807.28;;;4.19;100.00
19447;BME280;9862;49.462;11.054;2023-02-25T05:53:53;96805.50;;;4.26;100.00
19447;BME280;9862;49.462;11.054;2023-02-25T05:56:22;96815.00;;;4.27;100.00
19447;BME280;9862;49.462;11.054;2023-02-25T05:58:50;96810.97;;;4.31;100.00
19447;BME280;9862;49.462;11.054;2023-02-25T06:01:19;96824.94;;;4.25;100.00
19447;BME280;9862;49.462;11.054;2023-02-25T06:03:47;96818.25;;;4.29;100.00
19447;BME280;9862;49.462;11.054;2023-02-25T06:06:17;96829.41;;;4.31;100.00
19447;BME280;9862;49.462;11.054;2023-02-25T06:08:47;96828.59;;;4.37;100.00
19447;BME280;9862;49.462;11.054;2023-02-25T06:11:17;96825.75;;;4.25;100.00
19447;BME280;9862;49.462;11.054;2023-02-25T06:13:46;96826.56;;;4.26;100.00
19447;BME280;9862;49.462;11.054;2023-02-25T06:16:13;96808.09;;;4.19;100.00
19447;BME280;9862;49.462;11.054;2023-02-25T06:18:39;96801.34;;;4.03;100.00
19447;BME280;9862;49.462;11.054;2023-02-25T06:21:08;96797.50;;;3.99;100.00
19447;BME280;9862;49.462;11.054;2023-02-25T06:23:38;96783.75;;;3.97;100.00
19447;BME280;9862;49.462;11.054;2023-02-25T06:26:07;96780.09;;;3.98;100.00
19447;BME280;9862;49.462;11.054;2023-02-25T06:28:34;96795.06;;;3.98;100.00
19447;BME280;9862;49.462;11.054;2023-02-25T06:31:01;96830.28;;;3.90;100.00
19447;BME280;9862;49.462;11.054;2023-02-25T06:33:28;96841.84;;;4.02;100.00
19447;BME280;9862;49.462;11.054;2023-02-25T06:35:56;96852.00;;;4.06;100.00
19447;BME280;9862;49.462;11.054;2023-02-25T06:38:23;96853.84;;;4.12;100.00
19447;BME280;9862;49.462;11.054;2023-02-25T06:40:51;96864.59;;;4.17;100.00
19447;BME280;9862;49.462;11.054;2023-02-25T06:43:18;96868.28;;;4.29;100.00
19447;BME280;9862;49.462;11.054;2023-02-25T06:45:44;96871.13;;;4.34;100.00
19447;BME280;9862;49.462;11.054;2023-02-25T06:48:11;96865.41;;;4.24;100.00
19447;BME280;9862;49.462;11.054;2023-02-25T06:50:39;96866.25;;;4.31;100.00
19447;BME280;9862;49.462;11.054;2023-02-25T06:53:06;96871.16;;;4.41;100.00
19447;BME280;9862;49.462;11.054;2023-02-25T06:55:33;96878.25;;;4.40;100.00
19447;BME280;9862;49.462;11.054;2023-02-25T06:58:01;96887.16;;;4.39;100.00
19447;BME280;9862;49.462;11.054;2023-02-25T07:00:27;96889.41;;;4.49;100.00
19447;BME280;9862;49.462;11.054;2023-02-25T07:02:54;96881.09;;;4.45;100.00
19447;BME280;9862;49.462;11.054;2023-02-25T07:05:21;96889.38;;;4.36;100.00
19447;BME280;9862;49.462;11.054;2023-02-25T07:07:48;96893.22;;;4.33;100.00
19447;BME280;9862;49.462;11.054;2023-02-25T07:10:14;96888.13;;;4.25;100.00
19447;BME280;9862;49.462;11.054;2023-02-25T07:12:41;96890.13;;;4.23;100.00
19447;BME280;9862;49.462;11.054;2023-02-25T07:15:10;96886.28;;;4.19;100.00
19447;BME280;9862;49.462;11.054;2023-02-25T07:17:36;96885.88;;;4.15;100.00
19447;BME280;9862;49.462;11.054;2023-02-25T07:20:03;96882.38;;;4.08;100.00
19447;BME280;9862;49.462;11.054;2023-02-25T07:22:30;96880.25;;;4.25;100.00
19447;BME280;9862;49.462;11.054;2023-02-25T07:24:56;96878.38;;;4.19;100.00
19447;BME280;9862;49.462;11.054;2023-02-25T07:27:24;96881.00;;;4.19;100.00
19447;BME280;9862;49.462;11.054;2023-02-25T07:29:51;96887.84;;;4.13;100.00
19447;BME280;9862;49.462;11.054;2023-02-25T07:32:20;96895.31;;;4.03;100.00
19447;BME280;9862;49.462;11.054;2023-02-25T07:34:46;96888.88;;;4.06;100.00
19447;BME280;9862;49.462;11.054;2023-02-25T07:37:13;96885.56;;;3.97;100.00
19447;BME280;9862;49.462;11.054;2023-02-25T07:39:40;96898.91;;;3.95;100.00
19447;BME280;9862;49.462;11.054;2023-02-25T07:42:06;96908.28;;;4.05;100.00
19447;BME280;9862;49.462;11.054;2023-02-25T07:44:33;96899.84;;;4.16;100.00
19447;BME280;9862;49.462;11.054;2023-02-25T07:47:00;96900.41;;;4.11;100.00
19447;BME280;9862;49.462;11.054;2023-02-25T07:49:28;96913.22;;;4.21;100.00
19447;BME280;9862;49.462;11.054;2023-02-25T07:51:54;96909.97;;;4.19;100.00
19447;BME280;9862;49.462;11.054;2023-02-25T07:54:21;96915.25;;;4.19;100.00
19447;BME280;9862;49.462;11.054;2023-02-25T07:56:47;96912.44;;;4.27;100.00
19447;BME280;9862;49.462;11.054;2023-02-25T07:59:16;96924.19;;;4.31;100.00
19447;BME280;9862;49.462;11.054;2023-02-25T08:01:42;96918.53;;;4.27;100.00
19447;BME280;9862;49.462;11.054;2023-02-25T08:04:09;96918.75;;;4.39;100.00
19447;BME280;9862;49.462;11.054;2023-02-25T08:06:39;96923.63;;;4.42;100.00
19447;BME280;9862;49.462;11.054;2023-02-25T08:09:08;96917.38;;;4.50;100.00
19447;BME280;9862;49.462;11.054;2023-02-25T08:11:35;96912.97;;;4.57;100.00
19447;BME280;9862;49.462;11.054;2023-02-25T08:14:02;96911.50;;;4.48;100.00
19447;BME280;9862;49.462;11.054;2023-02-25T08:16:30;96917.38;;;4.50;100.00
19447;BME280;9862;49.462;11.054;2023-02-25T08:18:57;96908.88;;;4.48;100.00
19447;BME280;9862;49.462;11.054;2023-02-25T08:21:24;96910.09;;;4.52;100.00
19447;BME280;9862;49.462;11.054;2023-02-25T08:23:53;96914.31;;;4.40;100.00
19447;BME280;9862;49.462;11.054;2023-02-25T08:26:20;96912.56;;;4.60;100.00
19447;BME280;9862;49.462;11.054;2023-02-25T08:28:47;96910.56;;;4.69;100.00
19447;BME280;9862;49.462;11.054;2023-02-25T08:31:14;96905.28;;;4.69;100.00
19447;BME280;9862;49.462;11.054;2023-02-25T08:33:42;96904.88;;;4.72;100.00
19447;BME280;9862;49.462;11.054;2023-02-25T08:36:10;96911.59;;;4.81;100.00
19447;BME280;9862;49.462;11.054;2023-02-25T08:38:37;96903.50;;;4.89;100.00
19447;BME280;9862;49.462;11.054;2023-02-25T08:41:06;96912.22;;;4.89;100.00
19447;BME280;9862;49.462;11.054;2023-02-25T08:43:33;96913.22;;;4.82;100.00
19447;BME280;9862;49.462;11.054;2023-02-25T08:45:59;96904.09;;;4.91;100.00
19447;BME280;9862;49.462;11.054;2023-02-25T08:48:26;96913.63;;;4.79;100.00
19447;BME280;9862;49.462;11.054;2023-02-25T08:50:53;96912.59;;;4.80;100.00
19447;BME280;9862;49.462;11.054;2023-02-25T08:53:20;96911.84;;;4.93;100.00
19447;BME280;9862;49.462;11.054;2023-02-25T08:55:46;96901.88;;;5.01;100.00
19447;BME280;9862;49.462;11.054;2023-02-25T08:58:14;96904.50;;;4.88;100.00
19447;BME280;9862;49.462;11.054;2023-02-25T09:00:41;96922.34;;;4.86;100.00
19447;BME280;9862;49.462;11.054;2023-02-25T09:03:07;96919.50;;;4.81;100.00
19447;BME280;9862;49.462;11.054;2023-02-25T09:05:34;96923.31;;;4.72;100.00
19447;BME280;9862;49.462;11.054;2023-02-25T09:08:02;96918.72;;;4.87;100.00
19447;BME280;9862;49.462;11.054;2023-02-25T09:10:29;96923.38;;;4.98;100.00
19447;BME280;9862;49.462;11.054;2023-02-25T09:12:56;96926.81;;;4.92;100.00
19447;BME280;9862;49.462;11.054;2023-02-25T09:15:24;96922.53;;;4.78;100.00
19447;BME280;9862;49.462;11.054;2023-02-25T09:17:51;96927.03;;;4.84;100.00
19447;BME280;9862;49.462;11.054;2023-02-25T09:20:17;96933.50;;;4.88;100.00
19447;BME280;9862;49.462;11.054;2023-02-25T09:22:44;96937.34;;;4.92;100.00
19447;BME280;9862;49.462;11.054;2023-02-25T09:25:11;96926.81;;;4.92;100.00
19447;BME280;9862;49.462;11.054;2023-02-25T09:27:38;96930.50;;;5.04;100.00
19447;BME280;9862;49.462;11.054;2023-02-25T09:30:05;96922.41;;;5.26;100.00
19447;BME280;9862;49.462;11.054;2023-02-25T09:32:34;96928.06;;;5.16;100.00
19447;BME280;9862;49.462;11.054;2023-02-25T09:35:01;96933.16;;;5.17;100.00
19447;BME280;9862;49.462;11.054;2023-02-25T09:37:31;96924.63;;;5.09;100.00
19447;BME280;9862;49.462;11.054;2023-02-25T09:39:58;96932.13;;;5.18;100.00
19447;BME280;9862;49.462;11.054;2023-02-25T09:42:32;96938.22;;;5.26;100.00
19447;BME280;9862;49.462;11.054;2023-02-25T09:45:08;96919.53;;;5.01;100.00
19447;BME280;9862;49.462;11.054;2023-02-25T09:47:44;96921.97;;;4.96;100.00
19447;BME280;9862;49.462;11.054;2023-02-25T09:50:15;96927.69;;;5.12;100.00
19447;BME280;9862;49.462;11.054;2023-02-25T09:52:49;96923.00;;;5.08;100.00
19447;BME280;9862;49.462;11.054;2023-02-25T09:55:22;96913.44;;;5.00;100.00
19447;BME280;9862;49.462;11.054;2023-02-25T09:57:56;96928.47;;;5.20;100.00
19447;BME280;9862;49.462;11.054;2023-02-25T10:00:25;96917.94;;;5.33;100.00
19447;BME280;9862;49.462;11.054;2023-02-25T10:02:56;96913.47;;;5.27;100.00
19447;BME280;9862;49.462;11.054;2023-02-25T10:05:27;96915.91;;;5.28;100.00
19447;BME280;9862;49.462;11.054;2023-02-25T10:08:06;96908.81;;;5.35;100.00
19447;BME280;9862;49.462;11.054;2023-02-25T10:10:42;96915.50;;;5.38;100.00
19447;BME280;9862;49.462;11.054;2023-02-25T10:13:21;96909.41;;;5.57;100.00
19447;BME280;9862;49.462;11.054;2023-02-25T10:15:59;96912.47;;;5.54;100.00
19447;BME280;9862;49.462;11.054;2023-02-25T10:18:47;96900.06;;;5.74;100.00
19447;BME280;9862;49.462;11.054;2023-02-25T10:21:24;96897.59;;;5.93;100.00
19447;BME280;9862;49.462;11.054;2023-02-25T10:24:08;96889.88;;;5.85;100.00
19447;BME280;9862;49.462;11.054;2023-02-25T10:26:42;96895.63;;;5.62;100.00
19447;BME280;9862;49.462;11.054;2023-02-25T10:29:16;96891.53;;;5.72;100.00
19447;BME280;9862;49.462;11.054;2023-02-25T10:31:45;96878.97;;;5.55;100.00
19447;BME280;9862;49.462;11.054;2023-02-25T10:34:20;96886.88;;;5.48;100.00
19447;BME280;9862;49.462;11.054;2023-02-25T10:36:51;96883.22;;;5.49;100.00
19447;BME280;9862;49.462;11.054;2023-02-25T10:39:19;96875.72;;;5.46;100.00
19447;BME280;9862;49.462;11.054;2023-02-25T10:41:45;96895.00;;;5.46;100.00
19447;BME280;9862;49.462;11.054;2023-02-25T10:44:13;96895.63;;;5.35;100.00
19447;BME280;9862;49.462;11.054;2023-02-25T10:46:44;96893.78;;;5.36;100.00
19447;BME280;9862;49.462;11.054;2023-02-25T10:49:16;96893.59;;;5.51;100.00
19447;BME280;9862;49.462;11.054;2023-02-25T10:52:02;96886.47;;;5.64;100.00
19447;BME280;9862;49.462;11.054;2023-02-25T10:54:30;96885.44;;;5.72;100.00
19447;BME280;9862;49.462;11.054;2023-02-25T10:56:59;96884.22;;;5.74;100.00
19447;BME280;9862;49.462;11.054;2023-02-25T10:59:29;96879.34;;;5.65;100.00
19447;BME280;9862;49.462;11.054;2023-02-25T11:01:58;96876.06;;;5.83;100.00
19447;BME280;9862;49.462;11.054;2023-02-25T11:04:32;96869.19;;;5.75;100.00
19447;BME280;9862;49.462;11.054;2023-02-25T11:07:00;96868.38;;;5.74;100.00
19447;BME280;9862;49.462;11.054;2023-02-25T11:09:29;96866.16;;;5.71;100.00
19447;BME280;9862;49.462;11.054;2023-02-25T11:11:59;96863.47;;;5.85;100.00
19447;BME280;9862;49.462;11.054;2023-02-25T11:14:27;96860.22;;;5.89;100.00
19447;BME280;9862;49.462;11.054;2023-02-25T11:17:02;96864.06;;;5.87;100.00
19447;BME280;9862;49.462;11.054;2023-02-25T11:19:34;96861.03;;;5.83;100.00
19447;BME280;9862;49.462;11.054;2023-02-25T11:22:07;96875.28;;;5.69;100.00
19447;BME280;9862;49.462;11.054;2023-02-25T11:24:36;96887.91;;;5.47;100.00
19447;BME280;9862;49.462;11.054;2023-02-25T11:27:06;96880.63;;;5.23;100.00
19447;BME280;9862;49.462;11.054;2023-02-25T11:29:35;96868.03;;;5.25;100.00
19447;BME280;9862;49.462;11.054;2023-02-25T11:32:08;96876.75;;;5.05;100.00
19447;BME280;9862;49.462;11.054;2023-02-25T11:34:44;96875.31;;;5.09;100.00
19447;BME280;9862;49.462;11.054;2023-02-25T11:37:31;96876.97;;;5.24;100.00
19447;BME280;9862;49.462;11.054;2023-02-25T11:40:00;96876.13;;;5.50;100.00
19447;BME280;9862;49.462;11.054;2023-02-25T11:42:27;96864.31;;;5.92;100.00
19447;BME280;9862;49.462;11.054;2023-02-25T11:44:58;96857.91;;;6.19;100.00
19447;BME280;9862;49.462;11.054;2023-02-25T11:47:27;96863.81;;;6.15;100.00
19447;BME280;9862;49.462;11.054;2023-02-25T11:50:12;96879.34;;;5.91;100.00
19447;BME280;9862;49.462;11.054;2023-02-25T11:52:43;96878.75;;;5.63;100.00
19447;BME280;9862;49.462;11.054;2023-02-25T11:55:19;96878.56;;;5.38;100.00
19447;BME280;9862;49.462;11.054;2023-02-25T11:57:59;96882.59;;;4.74;100.00
19447;BME280;9862;49.462;11.054;2023-02-25T12:00:34;96879.72;;;4.63;100.00
19447;BME280;9862;49.462;11.054;2023-02-25T12:03:31;96881.09;;;4.45;100.00
19447;BME280;9862;49.462;11.054;2023-02-25T12:06:10;96875.25;;;4.56;100.00
19447;BME280;9862;49.462;11.054;2023-02-25T12:09:02;96869.81;;;4.71;100.00
19447;BME280;9862;49.462;11.054;2023-02-25T12:11:55;96870.06;;;4.83;100.00
19447;BME280;9862;49.462;11.054;2023-02-25T12:15:04;96867.59;;;5.01;100.00
19447;BME280;9862;49.462;11.054;2023-02-25T12:21:14;96854.66;;;5.33;100.00
19447;BME280;9862;49.462;11.054;2023-02-25T12:27:08;96852.19;;;5.44;100.00
19447;BME280;9862;49.462;11.054;2023-02-25T12:30:02;96854.78;;;5.64;100.00
19447;BME280;9862;49.462;11.054;2023-02-25T12:32:50;96844.44;;;5.56;100.00
19447;BME280;9862;49.462;11.054;2023-02-25T12:35:38;96849.34;;;5.53;100.00
19447;BME280;9862;49.462;11.054;2023-02-25T12:38:43;96841.59;;;5.71;100.00
19447;BME280;9862;49.462;11.054;2023-02-25T12:41:28;96842.03;;;5.61;100.00
19447;BME280;9862;49.462;11.054;2023-02-25T12:44:08;96848.16;;;5.42;100.00
19447;BME280;9862;49.462;11.054;2023-02-25T12:46:50;96849.16;;;5.41;100.00
19447;BME280;9862;49.462;11.054;2023-02-25T12:52:37;96851.97;;;5.53;100.00
19447;BME280;9862;49.462;11.054;2023-02-25T12:58:34;96855.47;;;5.13;100.00
19447;BME280;9862;49.462;11.054;2023-02-25T13:01:41;96861.31;;;5.09;100.00
19447;BME280;9862;49.462;11.054;2023-02-25T13:04:30;96859.72;;;5.21;100.00
19447;BME280;9862;49.462;11.054;2023-02-25T13:07:19;96871.66;;;5.10;100.00
19447;BME280;9862;49.462;11.054;2023-02-25T13:10:01;96861.53;;;5.21;100.00
19447;BME280;9862;49.462;11.054;2023-02-25T13:12:50;96872.50;;;5.31;100.00
19447;BME280;9862;49.462;11.054;2023-02-25T13:15:24;96876.38;;;5.22;100.00
19447;BME280;9862;49.462;11.054;2023-02-25T13:18:08;96933.44;;;4.14;100.00
19447;BME280;9862;49.462;11.054;2023-02-25T13:20:57;96950.31;;;2.71;100.00
19447;BME280;9862;49.462;11.054;2023-02-25T13:23:46;96952.94;;;2.35;100.00
19447;BME280;9862;49.462;11.054;2023-02-25T13:26:26;96949.50;;;2.35;100.00
19447;BME280;9862;49.462;11.054;2023-02-25T13:29:17;96946.38;;;2.61;100.00
19447;BME280;9862;49.462;11.054;2023-02-25T13:31:56;96953.16;;;2.55;100.00
19447;BME280;9862;49.462;11.054;2023-02-25T13:34:39;96963.56;;;2.48;100.00